sensor_id;sensor_type;location;lat;lon;timestamp;temperature;humidity
34873;DHT22;21084;51.098;14.506;2024-01-06T00:00:28;2.80;99.90
34873;DHT22;21084;51.098;14.506;2024-01-06T00:02:56;2.70;99.90
34873;DHT22;21084;51.098;14.506;2024-01-06T00:05:26;2.60;99.90
34873;DHT22;21084;51.098;14.506;2024-01-06T00:07:55;2.50;99.90
34873;DHT22;21084;51.098;14.506;2024-01-06T00:10:23;2.60;99.90
34873;DHT22;21084;51.098;14.506;2024-01-06T00:12:51;2.40;99.90
34873;DHT22;21084;51.098;14.506;2024-01-06T00:15:19;2.30;99.90
34873;DHT22;21084;51.098;14.506;2024-01-06T00:17:48;2.30;99.90
34873;DHT22;21084;51.098;14.506;2024-01-06T00:20:16;2.20;99.90
34873;DHT22;21084;51.098;14.506;2024-01-06T00:22:46;2.10;99.90
34873;DHT22;21084;51.098;14.506;2024-01-06T00:25:14;2.00;99.90
34873;DHT22;21084;51.098;14.506;2024-01-06T00:27:43;1.90;99.90
34873;DHT22;21084;51.098;14.506;2024-01-06T00:30:11;1.80;99.90
34873;DHT22;21084;51.098;14.506;2024-01-06T00:32:40;1.80;99.90
34873;DHT22;21084;51.098;14.506;2024-01-06T00:35:09;1.90;99.90
34873;DHT22;21084;51.098;14.506;2024-01-06T00:37:37;1.70;99.90
34873;DHT22;21084;51.098;14.506;2024-01-06T00:40:07;1.70;99.90
34873;DHT22;21084;51.098;14.506;2024-01-06T00:42:35;1.60;99.90
34873;DHT22;21084;51.098;14.506;2024-01-06T00:45:04;1.80;99.90
34873;DHT22;21084;51.098;14.506;2024-01-06T00:47:33;1.80;99.90
34873;DHT22;21084;51.098;14.506;2024-01-06T00:50:02;1.70;99.90
34873;DHT22;21084;51.098;14.506;2024-01-06T00:52:30;1.70;99.90
34873;DHT22;21084;51.098;14.506;2024-01-06T00:54:58;1.70;99.90
34873;DHT22;21084;51.098;14.506;2024-01-06T00:57:28;1.70;99.90
34873;DHT22;21084;51.098;14.506;2024-01-06T00:59:56;1.60;99.90
34873;DHT22;21084;51.098;14.506;2024-01-06T01:02:25;1.60;99.90
34873;DHT22;21084;51.098;14.506;2024-01-06T01:04:53;1.50;99.90
34873;DHT22;21084;51.098;14.506;2024-01-06T01:07:21;1.50;99.90
34873;DHT22;21084;51.098;14.506;2024-01-06T01:09:50;1.50;99.90
34873;DHT22;21084;51.098;14.506;2024-01-06T01:12:18;1.40;99.90
34873;DHT22;21084;51.098;14.506;2024-01-06T01:14:47;1.40;99.90
34873;DHT22;21084;51.098;14.506;2024-01-06T01:17:16;1.30;99.90
34873;DHT22;21084;51.098;14.506;2024-01-06T01:19:44;1.20;99.90
34873;DHT22;21084;51.098;14.506;2024-01-06T01:22:12;1.20;99.90
34873;DHT22;21084;51.098;14.506;2024-01-06T01:24:41;1.10;99.90
34873;DHT22;21084;51.098;14.506;2024-01-06T01:27:10;1.00;99.90
34873;DHT22;21084;51.098;14.506;2024-01-06T01:29:38;0.90;99.90
34873;DHT22;21084;51.098;14.506;2024-01-06T01:32:08;0.90;99.90
34873;DHT22;21084;51.098;14.506;2024-01-06T01:34:36;0.80;99.90
34873;DHT22;21084;51.098;14.506;2024-01-06T01:37:04;0.80;99.90
34873;DHT22;21084;51.098;14.506;2024-01-06T01:39:33;0.90;99.90
34873;DHT22;21084;51.098;14.506;2024-01-06T01:42:01;0.90;99.90
34873;DHT22;21084;51.098;14.506;2024-01-06T01:44:30;0.80;99.90
34873;DHT22;21084;51.098;14.506;2024-01-06T01:46:58;0.80;99.90
34873;DHT22;21084;51.098;14.506;2024-01-06T01:49:28;0.70;99.90
34873;DHT22;21084;51.098;14.506;2024-01-06T01:51:56;0.70;99.90
34873;DHT22;21084;51.098;14.506;2024-01-06T01:54:24;0.70;99.90
34873;DHT22;21084;51.098;14.506;2024-01-06T01:56:53;0.60;99.90
34873;DHT22;21084;51.098;14.506;2024-01-06T01:59:21;0.50;99.90
34873;DHT22;21084;51.098;14.506;2024-01-06T02:01:49;0.40;99.90
34873;DHT22;21084;51.098;14.506;2024-01-06T02:04:18;0.40;99.90
34873;DHT22;21084;51.098;14.506;2024-01-06T02:06:47;0.30;99.90
34873;DHT22;21084;51.098;14.506;2024-01-06T02:09:16;0.30;99.90
34873;DHT22;21084;51.098;14.506;2024-01-06T02:11:44;0.20;99.90
34873;DHT22;21084;51.098;14.506;2024-01-06T02:14:13;0.10;99.90
34873;DHT22;21084;51.098;14.506;2024-01-06T02:16:41;0.10;99.90
34873;DHT22;21084;51.098;14.506;2024-01-06T02:19:11;0.10;99.90
34873;DHT22;21084;51.098;14.506;2024-01-06T02:21:41;0.10;99.90
34873;DHT22;21084;51.098;14.506;2024-01-06T02:24:11;0.00;99.90
34873;DHT22;21084;51.098;14.506;2024-01-06T02:26:40;0.00;99.90
34873;DHT22;21084;51.098;14.506;2024-01-06T02:29:08;0.00;99.90
34873;DHT22;21084;51.098;14.506;2024-01-06T02:31:36;0.00;99.90
34873;DHT22;21084;51.098;14.506;2024-01-06T02:34:05;0.00;99.90
34873;DHT22;21084;51.098;14.506;2024-01-06T02:36:33;-0.10;99.90
34873;DHT22;21084;51.098;14.506;2024-01-06T02:39:02;-0.10;99.90
34873;DHT22;21084;51.098;14.506;2024-01-06T02:41:32;-0.20;99.90
34873;DHT22;21084;51.098;14.506;2024-01-06T02:44:00;-0.20;99.90
34873;DHT22;21084;51.098;14.506;2024-01-06T02:46:29;-0.10;99.90
34873;DHT22;21084;51.098;14.506;2024-01-06T02:48:58;-0.20;99.90
34873;DHT22;21084;51.098;14.506;2024-01-06T02:51:26;-0.20;99.90
34873;DHT22;21084;51.098;14.506;2024-01-06T02:53:55;-0.30;99.90
34873;DHT22;21084;51.098;14.506;2024-01-06T02:56:23;-0.30;99.90
34873;DHT22;21084;51.098;14.506;2024-01-06T02:58:53;-0.40;99.90
34873;DHT22;21084;51.098;14.506;2024-01-06T03:01:21;-0.40;99.90
34873;DHT22;21084;51.098;14.506;2024-01-06T03:03:50;-0.30;99.90
34873;DHT22;21084;51.098;14.506;2024-01-06T03:06:18;-0.30;99.90
34873;DHT22;21084;51.098;14.506;2024-01-06T03:08:46;-0.40;99.90
34873;DHT22;21084;51.098;14.506;2024-01-06T03:11:15;-0.40;99.90
34873;DHT22;21084;51.098;14.506;2024-01-06T03:13:43;-0.40;99.90
34873;DHT22;21084;51.098;14.506;2024-01-06T03:16:13;-0.40;99.90
34873;DHT22;21084;51.098;14.506;2024-01-06T03:18:41;-0.40;99.90
34873;DHT22;21084;51.098;14.506;2024-01-06T03:21:16;-0.40;99.90
34873;DHT22;21084;51.098;14.506;2024-01-06T03:23:45;-0.40;99.90
34873;DHT22;21084;51.098;14.506;2024-01-06T03:26:13;-0.40;99.90
34873;DHT22;21084;51.098;14.506;2024-01-06T03:28:41;-0.40;99.90
34873;DHT22;21084;51.098;14.506;2024-01-06T03:31:09;-0.40;99.90
34873;DHT22;21084;51.098;14.506;2024-01-06T03:33:40;-0.30;99.90
34873;DHT22;21084;51.098;14.506;2024-01-06T03:36:08;-0.30;99.90
34873;DHT22;21084;51.098;14.506;2024-01-06T03:38:37;-0.30;99.90
34873;DHT22;21084;51.098;14.506;2024-01-06T03:41:05;-0.30;99.90
34873;DHT22;21084;51.098;14.506;2024-01-06T03:43:33;-0.40;99.90
34873;DHT22;21084;51.098;14.506;2024-01-06T03:46:01;-0.40;99.90
34873;DHT22;21084;51.098;14.506;2024-01-06T03:48:30;-0.40;99.90
34873;DHT22;21084;51.098;14.506;2024-01-06T03:51:02;-0.50;99.90
34873;DHT22;21084;51.098;14.506;2024-01-06T03:53:31;-0.50;99.90
34873;DHT22;21084;51.098;14.506;2024-01-06T03:55:59;-0.50;99.90
34873;DHT22;21084;51.098;14.506;2024-01-06T03:58:27;-0.50;99.90
34873;DHT22;21084;51.098;14.506;2024-01-06T04:00:56;-0.50;99.90
34873;DHT22;21084;51.098;14.506;2024-01-06T04:03:24;-0.40;99.90
34873;DHT22;21084;51.098;14.506;2024-01-06T04:05:53;-0.50;99.90
34873;DHT22;21084;51.098;14.506;2024-01-06T04:08:23;-0.60;99.90
34873;DHT22;21084;51.098;14.506;2024-01-06T04:10:51;-0.60;99.90
34873;DHT22;21084;51.098;14.506;2024-01-06T04:13:20;-0.60;99.90
34873;DHT22;21084;51.098;14.506;2024-01-06T04:15:48;-0.70;99.90
34873;DHT22;21084;51.098;14.506;2024-01-06T04:18:16;-0.70;99.90
34873;DHT22;21084;51.098;14.506;2024-01-06T04:20:45;-0.80;99.90
34873;DHT22;21084;51.098;14.506;2024-01-06T04:23:13;-0.80;99.90
34873;DHT22;21084;51.098;14.506;2024-01-06T04:25:43;-0.80;99.90
34873;DHT22;21084;51.098;14.506;2024-01-06T04:28:11;-0.90;99.90
34873;DHT22;21084;51.098;14.506;2024-01-06T04:30:39;-0.90;99.90
34873;DHT22;21084;51.098;14.506;2024-01-06T04:33:08;-0.90;99.90
34873;DHT22;21084;51.098;14.506;2024-01-06T04:35:36;-0.90;99.90
34873;DHT22;21084;51.098;14.506;2024-01-06T04:38:04;-1.00;99.90
34873;DHT22;21084;51.098;14.506;2024-01-06T04:40:33;-1.00;99.90
34873;DHT22;21084;51.098;14.506;2024-01-06T04:43:03;-1.00;99.90
34873;DHT22;21084;51.098;14.506;2024-01-06T04:45:31;-1.00;99.90
34873;DHT22;21084;51.098;14.506;2024-01-06T04:47:59;-1.00;99.90
34873;DHT22;21084;51.098;14.506;2024-01-06T04:50:28;-1.10;99.90
34873;DHT22;21084;51.098;14.506;2024-01-06T04:52:56;-1.10;99.90
34873;DHT22;21084;51.098;14.506;2024-01-06T04:55:25;-1.10;99.90
34873;DHT22;21084;51.098;14.506;2024-01-06T04:57:53;-1.00;99.90
34873;DHT22;21084;51.098;14.506;2024-01-06T05:00:23;-1.00;99.90
34873;DHT22;21084;51.098;14.506;2024-01-06T05:02:52;-1.10;99.90
34873;DHT22;21084;51.098;14.506;2024-01-06T05:05:21;-1.10;99.90
34873;DHT22;21084;51.098;14.506;2024-01-06T05:07:50;-1.20;99.90
34873;DHT22;21084;51.098;14.506;2024-01-06T05:10:18;-1.20;99.90
34873;DHT22;21084;51.098;14.506;2024-01-06T05:12:46;-1.20;99.90
34873;DHT22;21084;51.098;14.506;2024-01-06T05:15:15;-1.20;99.90
34873;DHT22;21084;51.098;14.506;2024-01-06T05:17:44;-1.20;99.90
34873;DHT22;21084;51.098;14.506;2024-01-06T05:20:13;-1.20;99.90
34873;DHT22;21084;51.098;14.506;2024-01-06T05:22:41;-1.20;99.90
34873;DHT22;21084;51.098;14.506;2024-01-06T05:25:09;-1.20;99.90
34873;DHT22;21084;51.098;14.506;2024-01-06T05:27:38;-1.20;99.90
34873;DHT22;21084;51.098;14.506;2024-01-06T05:30:07;-1.30;99.90
34873;DHT22;21084;51.098;14.506;2024-01-06T05:32:36;-1.20;99.90
34873;DHT22;21084;51.098;14.506;2024-01-06T05:35:06;-1.20;99.90
34873;DHT22;21084;51.098;14.506;2024-01-06T05:37:35;-1.30;99.90
34873;DHT22;21084;51.098;14.506;2024-01-06T05:40:04;-1.30;99.90
34873;DHT22;21084;51.098;14.506;2024-01-06T05:42:33;-1.30;99.90
34873;DHT22;21084;51.098;14.506;2024-01-06T05:45:01;-1.20;99.90
34873;DHT22;21084;51.098;14.506;2024-01-06T05:47:30;-1.10;99.90
34873;DHT22;21084;51.098;14.506;2024-01-06T05:49:59;-1.00;99.90
34873;DHT22;21084;51.098;14.506;2024-01-06T05:52:28;-0.90;99.90
34873;DHT22;21084;51.098;14.506;2024-01-06T05:54:57;-0.90;99.90
34873;DHT22;21084;51.098;14.506;2024-01-06T05:57:26;-0.80;99.90
34873;DHT22;21084;51.098;14.506;2024-01-06T05:59:54;-0.60;99.90
34873;DHT22;21084;51.098;14.506;2024-01-06T06:02:23;-0.60;99.90
34873;DHT22;21084;51.098;14.506;2024-01-06T06:04:51;-0.50;99.90
34873;DHT22;21084;51.098;14.506;2024-01-06T06:07:20;-0.40;99.90
34873;DHT22;21084;51.098;14.506;2024-01-06T06:09:50;-0.30;99.90
34873;DHT22;21084;51.098;14.506;2024-01-06T06:12:20;-0.30;99.90
34873;DHT22;21084;51.098;14.506;2024-01-06T06:14:48;-0.20;99.90
34873;DHT22;21084;51.098;14.506;2024-01-06T06:17:16;-0.20;99.90
34873;DHT22;21084;51.098;14.506;2024-01-06T06:19:45;-0.10;99.90
34873;DHT22;21084;51.098;14.506;2024-01-06T06:22:13;0.00;99.90
34873;DHT22;21084;51.098;14.506;2024-01-06T06:24:41;0.00;99.90
34873;DHT22;21084;51.098;14.506;2024-01-06T06:27:11;0.10;99.90
34873;DHT22;21084;51.098;14.506;2024-01-06T06:29:40;0.10;99.90
34873;DHT22;21084;51.098;14.506;2024-01-06T06:32:08;0.10;99.90
34873;DHT22;21084;51.098;14.506;2024-01-06T06:34:36;0.20;99.90
34873;DHT22;21084;51.098;14.506;2024-01-06T06:37:04;0.20;99.90
34873;DHT22;21084;51.098;14.506;2024-01-06T06:39:33;0.20;99.90
34873;DHT22;21084;51.098;14.506;2024-01-06T06:42:02;0.20;99.90
34873;DHT22;21084;51.098;14.506;2024-01-06T06:44:32;0.30;99.90
34873;DHT22;21084;51.098;14.506;2024-01-06T06:47:00;0.30;99.90
34873;DHT22;21084;51.098;14.506;2024-01-06T06:49:28;0.30;99.90
34873;DHT22;21084;51.098;14.506;2024-01-06T06:51:57;0.30;99.90
34873;DHT22;21084;51.098;14.506;2024-01-06T06:54:25;0.30;99.90
34873;DHT22;21084;51.098;14.506;2024-01-06T06:56:53;0.30;99.90
34873;DHT22;21084;51.098;14.506;2024-01-06T06:59:21;0.30;99.90
34873;DHT22;21084;51.098;14.506;2024-01-06T07:01:51;0.40;99.90
34873;DHT22;21084;51.098;14.506;2024-01-06T07:04:19;0.40;99.90
34873;DHT22;21084;51.098;14.506;2024-01-06T07:06:48;0.40;99.90
34873;DHT22;21084;51.098;14.506;2024-01-06T07:09:16;0.40;99.90
34873;DHT22;21084;51.098;14.506;2024-01-06T07:11:48;0.40;99.90
34873;DHT22;21084;51.098;14.506;2024-01-06T07:14:16;0.50;99.90
34873;DHT22;21084;51.098;14.506;2024-01-06T07:16:45;0.50;99.90
34873;DHT22;21084;51.098;14.506;2024-01-06T07:19:14;0.50;99.90
34873;DHT22;21084;51.098;14.506;2024-01-06T07:21:43;0.60;99.90
34873;DHT22;21084;51.098;14.506;2024-01-06T07:24:11;0.60;99.90
34873;DHT22;21084;51.098;14.506;2024-01-06T07:26:40;0.60;99.90
34873;DHT22;21084;51.098;14.506;2024-01-06T07:29:08;0.60;99.90
34873;DHT22;21084;51.098;14.506;2024-01-06T07:31:37;0.70;99.90
34873;DHT22;21084;51.098;14.506;2024-01-06T07:34:05;0.70;99.90
34873;DHT22;21084;51.098;14.506;2024-01-06T07:36:35;0.70;99.90
34873;DHT22;21084;51.098;14.506;2024-01-06T07:39:05;0.70;99.90
34873;DHT22;21084;51.098;14.506;2024-01-06T07:41:33;0.70;99.90
34873;DHT22;21084;51.098;14.506;2024-01-06T07:44:01;0.80;99.90
34873;DHT22;21084;51.098;14.506;2024-01-06T07:46:30;0.80;99.90
34873;DHT22;21084;51.098;14.506;2024-01-06T07:48:59;0.80;99.90
34873;DHT22;21084;51.098;14.506;2024-01-06T07:51:27;0.80;99.90
34873;DHT22;21084;51.098;14.506;2024-01-06T07:53:57;0.90;99.90
34873;DHT22;21084;51.098;14.506;2024-01-06T07:56:26;0.90;99.90
34873;DHT22;21084;51.098;14.506;2024-01-06T07:58:54;0.90;99.90
34873;DHT22;21084;51.098;14.506;2024-01-06T08:01:22;0.90;99.90
34873;DHT22;21084;51.098;14.506;2024-01-06T08:03:51;0.90;99.90
34873;DHT22;21084;51.098;14.506;2024-01-06T08:06:19;1.00;99.90
34873;DHT22;21084;51.098;14.506;2024-01-06T08:08:48;1.00;99.90
34873;DHT22;21084;51.098;14.506;2024-01-06T08:11:17;1.10;99.90
34873;DHT22;21084;51.098;14.506;2024-01-06T08:13:46;1.10;99.90
34873;DHT22;21084;51.098;14.506;2024-01-06T08:16:14;1.10;99.90
34873;DHT22;21084;51.098;14.506;2024-01-06T08:18:42;1.20;99.90
34873;DHT22;21084;51.098;14.506;2024-01-06T08:21:12;1.20;99.90
34873;DHT22;21084;51.098;14.506;2024-01-06T08:23:40;1.30;99.90
34873;DHT22;21084;51.098;14.506;2024-01-06T08:26:08;1.40;99.90
34873;DHT22;21084;51.098;14.506;2024-01-06T08:28:40;1.50;99.90
34873;DHT22;21084;51.098;14.506;2024-01-06T08:31:09;1.60;99.90
34873;DHT22;21084;51.098;14.506;2024-01-06T08:33:37;1.70;99.90
34873;DHT22;21084;51.098;14.506;2024-01-06T08:36:06;1.80;99.90
34873;DHT22;21084;51.098;14.506;2024-01-06T08:38:35;1.90;99.90
34873;DHT22;21084;51.098;14.506;2024-01-06T08:41:03;1.90;99.90
34873;DHT22;21084;51.098;14.506;2024-01-06T08:43:31;1.90;99.90
34873;DHT22;21084;51.098;14.506;2024-01-06T08:46:01;2.10;99.90
34873;DHT22;21084;51.098;14.506;2024-01-06T08:48:30;2.20;99.90
34873;DHT22;21084;51.098;14.506;2024-01-06T08:51:02;2.20;99.90
34873;DHT22;21084;51.098;14.506;2024-01-06T08:53:30;2.20;99.90
34873;DHT22;21084;51.098;14.506;2024-01-06T08:55:59;2.30;99.90
34873;DHT22;21084;51.098;14.506;2024-01-06T08:58:27;2.40;99.90
34873;DHT22;21084;51.098;14.506;2024-01-06T09:00:55;2.60;99.90
34873;DHT22;21084;51.098;14.506;2024-01-06T09:03:25;2.70;99.90
34873;DHT22;21084;51.098;14.506;2024-01-06T09:05:54;2.90;99.90
34873;DHT22;21084;51.098;14.506;2024-01-06T09:08:23;3.00;99.90
34873;DHT22;21084;51.098;14.506;2024-01-06T09:10:51;3.20;99.90
34873;DHT22;21084;51.098;14.506;2024-01-06T09:13:22;3.40;99.90
34873;DHT22;21084;51.098;14.506;2024-01-06T09:15:51;3.60;99.90
34873;DHT22;21084;51.098;14.506;2024-01-06T09:18:19;3.80;99.90
34873;DHT22;21084;51.098;14.506;2024-01-06T09:20:49;3.90;99.90
34873;DHT22;21084;51.098;14.506;2024-01-06T09:23:17;4.00;99.90
34873;DHT22;21084;51.098;14.506;2024-01-06T09:25:50;4.00;99.90
34873;DHT22;21084;51.098;14.506;2024-01-06T09:28:19;4.10;99.90
34873;DHT22;21084;51.098;14.506;2024-01-06T09:30:48;4.10;99.90
34873;DHT22;21084;51.098;14.506;2024-01-06T09:33:17;4.00;99.90
34873;DHT22;21084;51.098;14.506;2024-01-06T09:35:46;4.00;99.90
34873;DHT22;21084;51.098;14.506;2024-01-06T09:38:15;4.00;99.90
34873;DHT22;21084;51.098;14.506;2024-01-06T09:40:44;4.00;99.90
34873;DHT22;21084;51.098;14.506;2024-01-06T09:43:13;4.10;99.90
34873;DHT22;21084;51.098;14.506;2024-01-06T09:45:42;4.10;99.90
34873;DHT22;21084;51.098;14.506;2024-01-06T09:48:12;4.10;99.90
34873;DHT22;21084;51.098;14.506;2024-01-06T09:50:42;4.00;99.90
34873;DHT22;21084;51.098;14.506;2024-01-06T09:53:11;4.00;99.90
34873;DHT22;21084;51.098;14.506;2024-01-06T09:55:42;4.00;99.90
34873;DHT22;21084;51.098;14.506;2024-01-06T09:58:11;4.10;99.90
34873;DHT22;21084;51.098;14.506;2024-01-06T10:00:40;4.20;99.90
34873;DHT22;21084;51.098;14.506;2024-01-06T10:03:08;4.10;99.90
34873;DHT22;21084;51.098;14.506;2024-01-06T10:05:37;4.00;99.90
34873;DHT22;21084;51.098;14.506;2024-01-06T10:08:05;4.10;99.90
34873;DHT22;21084;51.098;14.506;2024-01-06T10:10:34;4.10;99.90
34873;DHT22;21084;51.098;14.506;2024-01-06T10:13:04;4.00;99.90
34873;DHT22;21084;51.098;14.506;2024-01-06T10:15:33;3.90;99.90
34873;DHT22;21084;51.098;14.506;2024-01-06T10:18:03;4.00;99.90
34873;DHT22;21084;51.098;14.506;2024-01-06T10:20:32;3.90;99.90
34873;DHT22;21084;51.098;14.506;2024-01-06T10:23:04;3.80;99.90
34873;DHT22;21084;51.098;14.506;2024-01-06T10:25:32;3.80;99.90
34873;DHT22;21084;51.098;14.506;2024-01-06T10:28:00;3.80;99.90
34873;DHT22;21084;51.098;14.506;2024-01-06T10:30:31;3.70;99.90
34873;DHT22;21084;51.098;14.506;2024-01-06T10:33:00;3.80;99.90
34873;DHT22;21084;51.098;14.506;2024-01-06T10:35:29;3.80;99.90
34873;DHT22;21084;51.098;14.506;2024-01-06T10:37:57;3.90;99.90
34873;DHT22;21084;51.098;14.506;2024-01-06T10:40:26;4.00;99.90
34873;DHT22;21084;51.098;14.506;2024-01-06T10:42:54;4.00;99.90
34873;DHT22;21084;51.098;14.506;2024-01-06T10:45:24;4.00;99.90
34873;DHT22;21084;51.098;14.506;2024-01-06T10:47:54;4.00;99.90
34873;DHT22;21084;51.098;14.506;2024-01-06T10:50:23;4.10;99.90
34873;DHT22;21084;51.098;14.506;2024-01-06T10:52:51;4.10;99.90
34873;DHT22;21084;51.098;14.506;2024-01-06T10:55:20;4.00;99.90
34873;DHT22;21084;51.098;14.506;2024-01-06T10:57:49;4.00;99.90
34873;DHT22;21084;51.098;14.506;2024-01-06T11:00:19;3.90;99.90
34873;DHT22;21084;51.098;14.506;2024-01-06T11:02:48;4.00;99.90
34873;DHT22;21084;51.098;14.506;2024-01-06T11:05:21;4.10;99.90
34873;DHT22;21084;51.098;14.506;2024-01-06T11:07:50;4.20;99.90
34873;DHT22;21084;51.098;14.506;2024-01-06T11:10:21;4.30;99.90
34873;DHT22;21084;51.098;14.506;2024-01-06T11:15:39;4.50;99.90
34873;DHT22;21084;51.098;14.506;2024-01-06T11:18:08;4.60;99.90
34873;DHT22;21084;51.098;14.506;2024-01-06T11:20:38;4.70;99.90
34873;DHT22;21084;51.098;14.506;2024-01-06T11:23:19;4.80;99.90
34873;DHT22;21084;51.098;14.506;2024-01-06T11:25:48;4.60;99.90
34873;DHT22;21084;51.098;14.506;2024-01-06T11:28:16;4.60;99.90
34873;DHT22;21084;51.098;14.506;2024-01-06T11:30:45;4.60;99.90
34873;DHT22;21084;51.098;14.506;2024-01-06T11:33:14;4.60;99.90
34873;DHT22;21084;51.098;14.506;2024-01-06T11:35:44;4.60;99.90
34873;DHT22;21084;51.098;14.506;2024-01-06T11:38:16;4.60;99.90
34873;DHT22;21084;51.098;14.506;2024-01-06T11:40:45;4.60;99.90
34873;DHT22;21084;51.098;14.506;2024-01-06T11:43:13;4.60;99.90
34873;DHT22;21084;51.098;14.506;2024-01-06T11:45:43;4.50;99.90
34873;DHT22;21084;51.098;14.506;2024-01-06T11:48:12;4.30;99.90
34873;DHT22;21084;51.098;14.506;2024-01-06T11:50:41;4.10;99.90
34873;DHT22;21084;51.098;14.506;2024-01-06T11:53:11;3.90;99.90
34873;DHT22;21084;51.098;14.506;2024-01-06T11:55:39;3.80;99.90
34873;DHT22;21084;51.098;14.506;2024-01-06T11:58:09;3.90;99.90
34873;DHT22;21084;51.098;14.506;2024-01-06T12:00:38;4.00;99.90
34873;DHT22;21084;51.098;14.506;2024-01-06T12:03:08;4.00;99.90
34873;DHT22;21084;51.098;14.506;2024-01-06T12:05:36;4.10;99.90
34873;DHT22;21084;51.098;14.506;2024-01-06T12:08:05;4.20;99.90
34873;DHT22;21084;51.098;14.506;2024-01-06T12:10:36;4.20;99.90
34873;DHT22;21084;51.098;14.506;2024-01-06T12:13:05;4.20;99.90
34873;DHT22;21084;51.098;14.506;2024-01-06T12:15:36;4.20;99.90
34873;DHT22;21084;51.098;14.506;2024-01-06T12:18:07;4.20;99.90
34873;DHT22;21084;51.098;14.506;2024-01-06T12:20:36;4.10;99.90
34873;DHT22;21084;51.098;14.506;2024-01-06T12:23:05;4.10;99.90
34873;DHT22;21084;51.098;14.506;2024-01-06T12:25:34;4.10;99.90
34873;DHT22;21084;51.098;14.506;2024-01-06T12:28:08;4.00;99.90
34873;DHT22;21084;51.098;14.506;2024-01-06T12:30:38;3.80;99.90
34873;DHT22;21084;51.098;14.506;2024-01-06T12:33:07;3.70;99.90
34873;DHT22;21084;51.098;14.506;2024-01-06T12:35:35;3.60;99.90
34873;DHT22;21084;51.098;14.506;2024-01-06T12:38:04;3.50;99.90
34873;DHT22;21084;51.098;14.506;2024-01-06T12:40:35;3.40;99.90
34873;DHT22;21084;51.098;14.506;2024-01-06T12:43:04;3.30;99.90
34873;DHT22;21084;51.098;14.506;2024-01-06T12:45:35;3.30;99.90
34873;DHT22;21084;51.098;14.506;2024-01-06T12:48:04;3.30;99.90
34873;DHT22;21084;51.098;14.506;2024-01-06T12:50:32;3.20;99.90
34873;DHT22;21084;51.098;14.506;2024-01-06T12:53:02;3.20;99.90
34873;DHT22;21084;51.098;14.506;2024-01-06T12:55:30;3.10;99.90
34873;DHT22;21084;51.098;14.506;2024-01-06T12:57:58;3.20;99.90
34873;DHT22;21084;51.098;14.506;2024-01-06T13:00:31;3.10;99.90
34873;DHT22;21084;51.098;14.506;2024-01-06T13:03:05;3.00;99.90
34873;DHT22;21084;51.098;14.506;2024-01-06T13:05:39;2.90;99.90
34873;DHT22;21084;51.098;14.506;2024-01-06T13:08:07;2.90;99.90
34873;DHT22;21084;51.098;14.506;2024-01-06T13:10:35;2.80;99.90
34873;DHT22;21084;51.098;14.506;2024-01-06T13:13:04;2.80;99.90
34873;DHT22;21084;51.098;14.506;2024-01-06T13:15:32;2.90;99.90
34873;DHT22;21084;51.098;14.506;2024-01-06T13:18:01;2.80;99.90
34873;DHT22;21084;51.098;14.506;2024-01-06T13:20:31;2.70;99.90
34873;DHT22;21084;51.098;14.506;2024-01-06T13:23:00;2.60;99.90
34873;DHT22;21084;51.098;14.506;2024-01-06T13:25:28;2.50;99.90
34873;DHT22;21084;51.098;14.506;2024-01-06T13:27:56;2.50;99.90
34873;DHT22;21084;51.098;14.506;2024-01-06T13:30:24;2.50;99.90
34873;DHT22;21084;51.098;14.506;2024-01-06T13:32:53;2.50;99.90
34873;DHT22;21084;51.098;14.506;2024-01-06T13:35:22;2.40;99.90
34873;DHT22;21084;51.098;14.506;2024-01-06T13:37:53;2.40;99.90
34873;DHT22;21084;51.098;14.506;2024-01-06T13:40:22;2.40;99.90
34873;DHT22;21084;51.098;14.506;2024-01-06T13:42:51;2.30;99.90
34873;DHT22;21084;51.098;14.506;2024-01-06T13:45:21;2.30;99.90
34873;DHT22;21084;51.098;14.506;2024-01-06T13:47:50;2.30;99.90
34873;DHT22;21084;51.098;14.506;2024-01-06T13:50:19;2.30;99.90
34873;DHT22;21084;51.098;14.506;2024-01-06T13:52:47;2.30;99.90
34873;DHT22;21084;51.098;14.506;2024-01-06T13:55:17;2.30;99.90
34873;DHT22;21084;51.098;14.506;2024-01-06T13:57:46;2.30;99.90
34873;DHT22;21084;51.098;14.506;2024-01-06T14:00:14;2.30;99.90
34873;DHT22;21084;51.098;14.506;2024-01-06T14:02:47;2.30;99.90
34873;DHT22;21084;51.098;14.506;2024-01-06T14:05:15;2.30;99.90
34873;DHT22;21084;51.098;14.506;2024-01-06T14:07:44;2.30;99.90
34873;DHT22;21084;51.098;14.506;2024-01-06T14:10:15;2.20;99.90
34873;DHT22;21084;51.098;14.506;2024-01-06T14:12:45;2.20;99.90
34873;DHT22;21084;51.098;14.506;2024-01-06T14:15:14;2.10;99.90
34873;DHT22;21084;51.098;14.506;2024-01-06T14:17:42;2.10;99.90
34873;DHT22;21084;51.098;14.506;2024-01-06T14:20:16;2.00;99.90
34873;DHT22;21084;51.098;14.506;2024-01-06T14:22:45;2.00;99.90
34873;DHT22;21084;51.098;14.506;2024-01-06T14:25:14;2.00;99.90
34873;DHT22;21084;51.098;14.506;2024-01-06T14:27:46;2.00;99.90
34873;DHT22;21084;51.098;14.506;2024-01-06T14:30:15;2.00;99.90
34873;DHT22;21084;51.098;14.506;2024-01-06T14:32:43;2.00;99.90
34873;DHT22;21084;51.098;14.506;2024-01-06T14:35:12;2.00;99.90
34873;DHT22;21084;51.098;14.506;2024-01-06T14:37:42;2.00;99.90
34873;DHT22;21084;51.098;14.506;2024-01-06T14:40:11;1.90;99.90
34873;DHT22;21084;51.098;14.506;2024-01-06T14:42:40;1.90;99.90
34873;DHT22;21084;51.098;14.506;2024-01-06T14:45:10;1.90;99.90
34873;DHT22;21084;51.098;14.506;2024-01-06T14:47:38;1.90;99.90
34873;DHT22;21084;51.098;14.506;2024-01-06T14:50:07;1.90;99.90
34873;DHT22;21084;51.098;14.506;2024-01-06T14:52:36;1.80;99.90
34873;DHT22;21084;51.098;14.506;2024-01-06T14:55:04;1.80;99.90
34873;DHT22;21084;51.098;14.506;2024-01-06T14:57:33;1.80;99.90
34873;DHT22;21084;51.098;14.506;2024-01-06T15:00:02;1.70;99.90
34873;DHT22;21084;51.098;14.506;2024-01-06T15:02:32;1.70;99.90
34873;DHT22;21084;51.098;14.506;2024-01-06T15:05:00;1.70;99.90
34873;DHT22;21084;51.098;14.506;2024-01-06T15:07:29;1.70;99.90
34873;DHT22;21084;51.098;14.506;2024-01-06T15:09:58;1.70;99.90
34873;DHT22;21084;51.098;14.506;2024-01-06T15:12:30;1.60;99.90
34873;DHT22;21084;51.098;14.506;2024-01-06T15:27:44;1.30;99.90
34873;DHT22;21084;51.098;14.506;2024-01-06T15:30:14;1.30;99.90
34873;DHT22;21084;51.098;14.506;2024-01-06T15:32:46;1.40;99.90
34873;DHT22;21084;51.098;14.506;2024-01-06T15:35:16;1.50;99.90
34873;DHT22;21084;51.098;14.506;2024-01-06T15:37:46;1.40;99.90
34873;DHT22;21084;51.098;14.506;2024-01-06T15:40:15;1.30;99.90
34873;DHT22;21084;51.098;14.506;2024-01-06T15:42:45;1.30;99.90
34873;DHT22;21084;51.098;14.506;2024-01-06T15:45:14;1.20;99.90
34873;DHT22;21084;51.098;14.506;2024-01-06T15:47:43;1.20;99.90
34873;DHT22;21084;51.098;14.506;2024-01-06T15:50:12;1.10;99.90
34873;DHT22;21084;51.098;14.506;2024-01-06T15:52:41;1.10;99.90